Time;durP1;ratioP1;P1;durP2;ratioP2;P2;SDS_P1;SDS_P2;PMS_P1;PMS_P2;Temp;Humidity;BMP_temperature;BMP_pressure;BME280_temperature;BME280_humidity;BME280_pressure;Samples;Min_cycle;Max_cycle;Signal;HPM_P1;HPM_P2
2021/10/09 00:00:29;;;;;;;32.47;27.07;;;;;;;9.14;85.92;101933.19;5049934;28;20217;-80
2021/10/09 00:02:55;;;;;;;29.57;26.40;;;;;;;9.20;86.66;101913.28;5050575;28;20942;-79
2021/10/09 00:05:21;;;;;;;30.20;26.23;;;;;;;9.23;86.88;101895.06;5052206;28;20209;-80
2021/10/09 00:07:48;;;;;;;32.77;27.13;;;;;;;9.23;87.27;101887.25;5051498;28;20290;-81
2021/10/09 00:10:24;;;;;;;28.67;25.77;;;;;;;9.20;87.50;101882.88;5048014;28;20210;-78
2021/10/09 00:12:50;;;;;;;29.07;26.00;;;;;;;9.15;87.94;101871.53;5047443;28;20218;-80
2021/10/09 00:15:18;;;;;;;32.00;26.10;;;;;;;9.15;87.94;101868.94;5047225;28;20554;-80
2021/10/09 00:17:45;;;;;;;27.93;24.93;;;;;;;9.21;88.18;101860.31;5047399;28;20231;-79
2021/10/09 00:20:11;;;;;;;30.17;24.53;;;;;;;9.24;88.05;101858.59;5045990;28;20210;-78
2021/10/09 00:22:38;;;;;;;31.30;25.30;;;;;;;9.25;88.04;101865.56;5047435;28;20223;-80
2021/10/09 00:25:05;;;;;;;30.77;25.63;;;;;;;9.26;87.98;101877.72;5047641;28;20213;-80
2021/10/09 00:27:31;;;;;;;27.80;24.80;;;;;;;9.26;87.96;101874.25;5046761;28;20769;-81
2021/10/09 00:29:58;;;;;;;28.73;25.57;;;;;;;9.22;87.84;101881.16;5047311;28;20234;-80
2021/10/09 00:32:26;;;;;;;30.27;24.60;;;;;;;9.22;87.58;101883.78;5047771;28;20474;-81
2021/10/09 00:34:52;;;;;;;27.53;24.80;;;;;;;9.13;88.23;101866.31;5046851;28;20748;-78
2021/10/09 00:37:19;;;;;;;29.33;24.30;;;;;;;9.15;88.11;101875.00;5047005;28;20233;-79
2021/10/09 00:39:45;;;;;;;27.70;24.77;;;;;;;9.13;88.11;101874.13;5046352;28;20645;-79
2021/10/09 00:42:12;;;;;;;28.20;25.20;;;;;;;9.11;88.41;101864.56;5046686;28;20500;-79
2021/10/09 00:44:38;;;;;;;28.77;23.13;;;;;;;9.10;87.90;101868.91;5047573;28;20579;-80
2021/10/09 00:47:05;;;;;;;26.50;23.80;;;;;;;9.07;88.18;101870.59;5046444;28;20606;-79
2021/10/09 00:49:33;;;;;;;33.27;25.10;;;;;;;9.04;88.68;101867.94;5046828;28;20205;-78
2021/10/09 00:52:02;;;;;;;29.63;23.47;;;;;;;9.00;88.33;101869.66;5046480;28;20209;-80
2021/10/09 00:54:30;;;;;;;26.10;23.40;;;;;;;9.02;88.13;101862.75;5046436;28;20497;-79
2021/10/09 00:56:58;;;;;;;30.07;23.30;;;;;;;9.03;88.03;101874.88;5046450;28;20230;-79
2021/10/09 00:59:26;;;;;;;24.70;21.63;;;;;;;9.03;87.84;101884.44;5046860;28;20209;-78
2021/10/09 01:01:53;;;;;;;26.50;23.37;;;;;;;9.02;87.62;101882.69;5044597;28;20427;-80
2021/10/09 01:04:19;;;;;;;30.20;23.37;;;;;;;8.99;87.30;101893.06;5045442;28;20730;-81
2021/10/09 01:06:47;;;;;;;24.50;21.80;;;;;;;8.98;87.43;101894.81;5045773;28;20288;-79
2021/10/09 01:09:14;;;;;;;28.97;23.60;;;;;;;8.95;87.30;101892.16;5045354;28;20227;-80
2021/10/09 01:11:40;;;;;;;25.40;23.00;;;;;;;8.93;87.37;101899.09;5045193;28;20208;-79
2021/10/09 01:14:07;;;;;;;25.73;23.00;;;;;;;8.90;87.06;101904.25;5044781;28;20206;-79
2021/10/09 01:16:33;;;;;;;24.87;22.50;;;;;;;8.86;86.78;101911.19;5044606;28;20259;-80
2021/10/09 01:19:00;;;;;;;26.53;22.53;;;;;;;8.83;87.09;101908.53;5045062;28;20256;-79
2021/10/09 01:21:39;;;;;;;28.57;23.90;;;;;;;8.80;86.90;101907.59;5044513;28;20221;-80
2021/10/09 01:24:05;;;;;;;26.10;23.27;;;;;;;8.71;87.25;101892.75;5044784;28;20259;-79
2021/10/09 01:26:32;;;;;;;26.37;23.30;;;;;;;8.68;87.62;101882.28;5044772;28;20209;-80
2021/10/09 01:28:58;;;;;;;30.83;23.33;;;;;;;8.68;87.78;101869.28;5044421;28;20221;-81
2021/10/09 01:31:25;;;;;;;27.70;23.70;;;;;;;8.67;87.84;101873.63;5044620;28;20214;-79
2021/10/09 01:33:51;;;;;;;27.13;23.77;;;;;;;8.67;87.50;101871.00;5045110;28;20213;-79
2021/10/09 01:36:18;;;;;;;27.23;22.27;;;;;;;8.66;87.14;101866.69;5045167;28;20213;-80
2021/10/09 01:38:50;;;;;;;25.13;22.40;;;;;;;8.65;87.31;101874.47;5044514;28;20229;-79
2021/10/09 01:41:17;;;;;;;24.07;21.87;;;;;;;8.62;87.08;101883.13;5045170;28;20205;-79
2021/10/09 01:43:43;;;;;;;25.57;21.20;;;;;;;8.60;87.02;101886.53;5045712;28;20683;-80
2021/10/09 01:46:10;;;;;;;26.90;22.07;;;;;;;8.54;86.46;101889.94;5044997;28;20201;-80
2021/10/09 01:48:38;;;;;;;26.40;23.73;;;;;;;8.50;87.16;101889.03;5045192;28;20233;-81
2021/10/09 01:51:06;;;;;;;29.27;22.30;;;;;;;8.45;87.27;101879.41;5044377;28;20456;-79
2021/10/09 01:53:33;;;;;;;24.37;21.93;;;;;;;8.42;87.01;101884.56;5044954;28;20207;-79
2021/10/09 01:56:01;;;;;;;24.30;21.77;;;;;;;8.40;86.80;101886.25;5045384;28;20617;-81
2021/10/09 01:58:27;;;;;;;25.77;21.43;;;;;;;8.35;87.67;101884.47;5044639;28;20233;-80
2021/10/09 02:00:54;;;;;;;24.47;21.60;;;;;;;8.29;87.43;101875.72;5043748;28;20258;-80
2021/10/09 02:03:21;;;;;;;23.90;21.67;;;;;;;8.32;87.52;101873.13;5044959;28;20213;-82
2021/10/09 02:05:48;;;;;;;24.27;21.80;;;;;;;8.33;87.48;101877.50;5044512;28;20206;-82
2021/10/09 02:08:15;;;;;;;24.37;21.50;;;;;;;8.31;87.27;101872.25;5044264;28;20233;-81
2021/10/09 02:10:49;;;;;;;24.73;22.33;;;;;;;8.29;86.92;101881.78;5044381;28;20296;-79
2021/10/09 02:13:20;;;;;;;27.23;21.87;;;;;;;8.25;87.13;101881.72;5044930;28;20228;-80
2021/10/09 02:15:50;;;;;;;28.70;21.80;;;;;;;8.21;87.58;101872.13;5044494;28;20300;-80
2021/10/09 02:26:34;;;;;;;25.77;21.47;;;;;;;8.11;87.54;101866.78;5044895;28;20258;-81
2021/10/09 02:29:01;;;;;;;23.87;21.37;;;;;;;8.09;87.69;101859.81;5044890;28;20252;-81
2021/10/09 02:31:28;;;;;;;23.43;21.17;;;;;;;8.07;87.46;101858.94;5044256;28;20637;-82
2021/10/09 02:33:54;;;;;;;23.47;21.43;;;;;;;8.05;87.03;101861.50;5044503;28;20262;-80
2021/10/09 02:36:21;;;;;;;25.23;21.67;;;;;;;8.03;86.95;101860.59;5045476;28;20215;-80
2021/10/09 02:38:47;;;;;;;23.90;21.53;;;;;;;8.03;87.33;101868.41;5044592;28;20225;-81
2021/10/09 02:41:14;;;;;;;31.03;21.37;;;;;;;8.02;86.82;101863.19;5045096;28;20625;-79
2021/10/09 02:43:40;;;;;;;23.40;21.20;;;;;;;7.99;86.79;101871.81;5047795;28;20286;-80
2021/10/09 02:46:08;;;;;;;23.17;20.70;;;;;;;7.97;87.65;101868.31;5048567;28;20255;-80
2021/10/09 02:48:35;;;;;;;21.63;19.63;;;;;;;7.94;87.57;101870.84;5048557;28;20290;-79
2021/10/09 02:51:01;;;;;;;21.80;19.67;;;;;;;7.90;87.52;101866.47;5048890;28;20335;-81
2021/10/09 02:53:27;;;;;;;21.80;19.80;;;;;;;7.88;87.11;101868.16;5048718;28;20232;-81
2021/10/09 02:55:54;;;;;;;21.97;19.87;;;;;;;7.88;87.43;101869.03;5049097;28;20635;-80
2021/10/09 02:58:20;;;;;;;23.10;20.47;;;;;;;7.85;87.34;101870.72;5049053;28;20278;-82
2021/10/09 03:00:46;;;;;;;22.03;19.93;;;;;;;7.82;86.71;101887.16;5048002;28;20770;-80
2021/10/09 03:03:14;;;;;;;22.37;19.10;;;;;;;7.78;86.34;101881.88;5048464;28;20632;-80
2021/10/09 03:05:40;;;;;;;21.10;19.03;;;;;;;7.76;86.45;101882.72;5048492;28;20274;-80
2021/10/09 03:08:07;;;;;;;22.10;19.03;;;;;;;7.72;86.46;101880.91;5047601;28;20875;-79
2021/10/09 03:10:33;;;;;;;33.70;19.90;;;;;;;7.67;87.21;101885.19;5048320;28;20213;-80
2021/10/09 03:13:00;;;;;;;20.80;18.87;;;;;;;7.65;86.99;101886.00;5048769;28;20209;-82
2021/10/09 03:15:27;;;;;;;19.90;18.20;;;;;;;7.61;86.69;101877.28;5048057;28;20218;-82
2021/10/09 03:17:53;;;;;;;21.10;19.03;;;;;;;7.59;86.75;101876.41;5048836;28;20697;-81
2021/10/09 03:20:21;;;;;;;21.27;19.27;;;;;;;7.55;86.43;101878.06;5049155;28;20211;-82
2021/10/09 03:22:47;;;;;;;21.43;18.97;;;;;;;7.55;87.25;101882.38;5048917;28;20335;-82
2021/10/09 03:25:15;;;;;;;20.27;18.27;;;;;;;7.53;86.71;101873.66;5049368;28;20205;-82
2021/10/09 03:27:41;;;;;;;23.00;18.67;;;;;;;7.50;87.47;101884.91;5049269;28;20731;-80
2021/10/09 03:30:09;;;;;;;21.57;19.27;;;;;;;7.50;86.89;101882.28;5049197;28;20198;-81
2021/10/09 03:32:36;;;;;;;21.47;19.33;;;;;;;7.49;86.45;101885.75;5049701;28;20239;-81
2021/10/09 03:35:03;;;;;;;21.17;19.00;;;;;;;7.46;86.63;101882.22;5048888;28;20459;-80
2021/10/09 03:37:30;;;;;;;20.77;18.93;;;;;;;7.47;86.50;101887.47;5048606;28;20718;-81
2021/10/09 03:40:01;;;;;;;19.70;18.10;;;;;;;7.45;85.90;101891.75;5049108;28;20209;-79
2021/10/09 03:42:32;;;;;;;22.33;19.43;;;;;;;7.39;85.98;101883.81;5048974;28;20209;-81
2021/10/09 03:45:03;;;;;;;24.53;18.97;;;;;;;7.38;86.92;101886.41;5049254;28;21558;-80
2021/10/09 03:47:43;;;;;;;20.70;18.57;;;;;;;7.34;86.47;101888.94;5049065;28;20488;-79
2021/10/09 03:50:20;;;;;;;20.50;18.47;;;;;;;7.33;85.81;101904.50;5049066;28;20205;-79
2021/10/09 03:52:47;;;;;;;22.17;18.97;;;;;;;7.28;85.60;101914.81;5048778;28;20680;-78
2021/10/09 03:55:17;;;;;;;20.73;18.90;;;;;;;7.25;85.75;101919.94;5049545;28;20212;-81
2021/10/09 03:57:45;;;;;;;23.57;18.97;;;;;;;7.20;85.78;101921.59;5048533;28;20577;-82
2021/10/09 04:00:13;;;;;;;24.13;19.03;;;;;;;7.14;85.03;101927.53;5048322;28;20316;-80
2021/10/09 04:02:40;;;;;;;23.30;19.80;;;;;;;7.11;85.61;101930.06;5048783;28;20209;-81
2021/10/09 04:05:06;;;;;;;24.27;19.10;;;;;;;7.06;86.25;101925.66;5048773;28;20236;-81
2021/10/09 04:07:33;;;;;;;21.93;19.37;;;;;;;7.02;85.99;101916.94;5048932;28;20228;-80
2021/10/09 04:10:01;;;;;;;21.40;18.77;;;;;;;6.97;85.73;101921.13;5047331;28;20228;-80
2021/10/09 04:12:28;;;;;;;19.07;17.47;;;;;;;6.94;85.71;101906.38;5047793;28;20209;-80
2021/10/09 04:14:54;;;;;;;20.43;18.33;;;;;;;6.94;86.52;101896.00;5048027;28;20209;-79
2021/10/09 04:17:20;;;;;;;21.20;17.63;;;;;;;6.93;86.88;101883.00;5047948;28;20226;-80
2021/10/09 04:19:47;;;;;;;20.63;18.73;;;;;;;6.92;86.51;101879.53;5047563;28;20270;-81
2021/10/09 04:22:14;;;;;;;19.17;17.27;;;;;;;6.96;86.97;101862.28;5046944;28;20474;-80
2021/10/09 04:24:40;;;;;;;19.20;17.40;;;;;;;6.96;87.09;101868.34;5047392;28;20264;-82
2021/10/09 04:27:08;;;;;;;22.80;18.37;;;;;;;6.99;87.48;101856.28;5046103;28;20781;-81
2021/10/09 04:29:35;;;;;;;19.27;17.40;;;;;;;7.01;87.44;101859.78;5046225;28;20334;-80
2021/10/09 04:32:01;;;;;;;24.27;18.80;;;;;;;7.00;86.92;101864.09;5046320;28;20633;-82
2021/10/09 04:34:28;;;;;;;23.63;16.80;;;;;;;6.97;87.86;101864.91;5046963;28;20623;-81
2021/10/09 04:36:55;;;;;;;24.07;18.43;;;;;;;6.93;87.16;101865.69;5046124;28;20232;-79
2021/10/09 04:39:22;;;;;;;19.43;17.73;;;;;;;6.90;87.18;101862.19;5045546;28;20215;-80
2021/10/09 04:41:49;;;;;;;24.30;17.40;;;;;;;6.93;87.54;101846.66;5046111;28;20710;-80
2021/10/09 04:44:16;;;;;;;21.00;17.30;;;;;;;6.92;86.89;101852.69;5045581;28;20205;-80
2021/10/09 04:46:43;;;;;;;21.30;18.00;;;;;;;6.94;87.60;101859.66;5045655;28;20217;-80
2021/10/09 04:49:09;;;;;;;20.60;18.30;;;;;;;6.90;87.05;101857.84;5045576;28;20278;-80
2021/10/09 04:51:36;;;;;;;23.83;18.50;;;;;;;6.88;86.94;101859.53;5046029;28;20226;-81
2021/10/09 04:54:02;;;;;;;20.07;18.00;;;;;;;6.87;86.65;101868.16;5045459;28;20432;-80
2021/10/09 04:56:29;;;;;;;21.53;17.77;;;;;;;6.86;87.16;101871.63;5046534;28;20217;-80
2021/10/09 04:58:55;;;;;;;20.50;18.47;;;;;;;6.86;87.23;101875.94;5045647;28;20342;-81
2021/10/09 05:01:23;;;;;;;20.10;18.10;;;;;;;6.80;86.79;101876.69;5045739;28;20267;-81
2021/10/09 05:03:49;;;;;;;21.83;17.83;;;;;;;6.83;86.41;101881.94;5045609;28;20254;-80
2021/10/09 05:06:16;;;;;;;19.53;17.87;;;;;;;6.84;87.14;101886.28;5044800;28;20262;-82
2021/10/09 05:08:42;;;;;;;19.50;17.80;;;;;;;6.84;87.22;101886.28;5045341;28;20720;-80
2021/10/09 05:11:09;;;;;;;21.23;17.97;;;;;;;6.83;86.77;101887.13;5045755;28;20267;-81
2021/10/09 05:13:36;;;;;;;19.30;17.47;;;;;;;6.83;86.67;101883.66;5045580;28;20298;-82
2021/10/09 05:16:02;;;;;;;18.20;16.50;;;;;;;6.82;87.45;101887.97;5045381;28;20205;-81
2021/10/09 05:18:30;;;;;;;19.30;17.37;;;;;;;6.82;86.90;101894.88;5045088;28;20661;-80
2021/10/09 05:20:56;;;;;;;19.87;16.63;;;;;;;6.80;86.40;101888.78;5045325;28;20643;-80
2021/10/09 05:23:22;;;;;;;19.37;17.40;;;;;;;6.79;86.80;101900.00;5044775;28;20671;-82
2021/10/09 05:25:49;;;;;;;19.10;17.20;;;;;;;6.78;86.26;101912.13;5045887;28;20515;-79
2021/10/09 05:28:18;;;;;;;19.47;17.73;;;;;;;6.75;86.25;101915.50;5045508;28;20286;-80
2021/10/09 05:30:48;;;;;;;20.33;17.67;;;;;;;6.72;86.28;101918.06;5045744;28;20209;-80
2021/10/09 05:33:20;;;;;;;19.17;17.03;;;;;;;6.71;85.97;101916.28;5045415;28;20676;-80
2021/10/09 05:35:48;;;;;;;19.07;17.07;;;;;;;6.70;86.63;101922.34;5045200;28;20210;-78
2021/10/09 05:38:15;;;;;;;19.00;17.20;;;;;;;6.68;86.58;101928.31;5045931;28;20267;-80
2021/10/09 05:40:41;;;;;;;18.63;16.53;;;;;;;6.66;86.69;101925.72;5046159;28;20213;-78
2021/10/09 05:43:08;;;;;;;20.17;16.93;;;;;;;6.64;86.38;101932.59;5046420;28;20639;-79
2021/10/09 05:45:34;;;;;;;22.33;16.20;;;;;;;6.65;86.55;101934.34;5046543;28;20567;-80
2021/10/09 05:48:01;;;;;;;19.20;16.70;;;;;;;6.61;86.28;101935.09;5046374;28;20746;-79
2021/10/09 05:50:31;;;;;;;18.80;16.93;;;;;;;6.61;86.32;101934.25;5046029;28;20233;-78
2021/10/09 05:53:08;;;;;;;18.17;16.00;;;;;;;6.57;86.45;101946.25;5046240;28;20482;-79
2021/10/09 05:55:37;;;;;;;23.70;16.20;;;;;;;6.53;85.75;101950.50;5045840;28;20215;-79
2021/10/09 05:58:08;;;;;;;19.33;16.80;;;;;;;6.54;85.65;101951.38;5045185;28;20712;-78
2021/10/09 06:26:01;;;;;;;18.00;16.20;;;;;;;6.31;86.10;101972.50;5048909;28;20246;-80
2021/10/09 06:42:38;;;;;;;17.77;15.97;;;;;;;6.33;87.35;101938.81;5048425;28;20270;-82
2021/10/09 06:45:18;;;;;;;21.00;17.67;;;;;;;6.35;87.61;101934.53;5048102;28;20205;-83
2021/10/09 06:47:48;;;;;;;18.60;16.17;;;;;;;6.38;87.35;101938.91;5048484;28;20221;-81
2021/10/09 07:01:32;;;;;;;19.87;17.27;;;;;;;6.41;87.82;101931.22;5052940;28;20212;-80
2021/10/09 07:03:58;;;;;;;19.30;16.13;;;;;;;6.44;88.17;101928.66;5052656;28;20622;-82
2021/10/09 07:06:25;;;;;;;17.93;16.13;;;;;;;6.45;88.14;101926.13;5050842;28;20212;-81
2021/10/09 07:08:51;;;;;;;19.40;17.33;;;;;;;6.42;87.92;101928.66;5051601;28;20229;-81
2021/10/09 07:11:17;;;;;;;21.57;16.07;;;;;;;6.47;88.49;101923.56;5053049;28;20291;-83
2021/10/09 07:13:44;;;;;;;19.73;17.93;;;;;;;6.46;88.97;101920.09;5050145;28;20209;-84
2021/10/09 07:16:12;;;;;;;25.03;17.90;;;;;;;6.51;88.19;101915.00;5051297;28;20224;-82
2021/10/09 07:18:38;;;;;;;17.77;16.17;;;;;;;6.56;88.65;101914.25;5052414;28;20699;-83
2021/10/09 07:21:04;;;;;;;17.67;16.00;;;;;;;6.58;89.01;101909.13;5053302;28;20224;-82
2021/10/09 07:23:31;;;;;;;19.10;17.23;;;;;;;6.63;88.49;101910.06;5053118;28;20219;-81
2021/10/09 07:25:57;;;;;;;20.73;16.63;;;;;;;6.65;88.52;101912.72;5053445;28;20209;-82
2021/10/09 07:28:23;;;;;;;21.87;17.50;;;;;;;6.70;88.55;101922.34;5052439;28;20237;-82
2021/10/09 07:30:50;;;;;;;22.80;17.67;;;;;;;6.72;88.74;101923.25;5052315;28;20236;-81
2021/10/09 07:33:18;;;;;;;19.40;16.83;;;;;;;6.76;88.46;101912.09;5053576;28;20206;-82
2021/10/09 07:35:44;;;;;;;24.80;18.40;;;;;;;6.81;89.07;101911.31;5053045;28;20263;-82
2021/10/09 07:38:11;;;;;;;22.13;18.33;;;;;;;6.76;88.82;101914.69;5053905;28;20225;-82
2021/10/09 07:40:38;;;;;;;20.10;18.07;;;;;;;6.76;89.25;101906.91;5053536;28;20292;-84
2021/10/09 07:43:04;;;;;;;18.93;17.10;;;;;;;6.86;88.69;101907.97;5051896;28;20216;-83
2021/10/09 07:45:30;;;;;;;18.87;17.00;;;;;;;6.93;88.41;101919.34;5049741;28;20753;-82
2021/10/09 07:47:57;;;;;;;20.53;17.93;;;;;;;6.99;88.04;101940.22;5053050;28;20225;-82
2021/10/09 07:50:25;;;;;;;23.33;17.43;;;;;;;7.04;88.73;101946.38;5052174;28;20259;-79
2021/10/09 07:52:51;;;;;;;18.27;16.57;;;;;;;7.06;88.19;101939.50;5049223;28;20279;-81
2021/10/09 07:55:17;;;;;;;20.53;17.40;;;;;;;7.12;88.28;101957.81;5049474;28;20267;-79
2021/10/09 07:57:44;;;;;;;22.03;17.77;;;;;;;7.11;87.91;101958.63;5049482;28;20233;-79
2021/10/09 08:00:11;;;;;;;18.07;16.47;;;;;;;7.21;88.56;101949.28;5048631;28;20212;-80
2021/10/09 08:02:37;;;;;;;20.70;17.53;;;;;;;7.22;88.62;101945.00;5048229;28;20205;-79
2021/10/09 08:05:05;;;;;;;28.87;17.03;;;;;;;7.30;87.89;101959.88;5048415;28;20705;-79
2021/10/09 08:07:33;;;;;;;19.53;15.70;;;;;;;7.36;87.78;101965.19;5046922;28;20730;-79
2021/10/09 08:10:00;;;;;;;25.77;16.73;;;;;;;7.39;87.21;101966.09;5046873;28;20371;-80
2021/10/09 08:12:26;;;;;;;22.03;18.33;;;;;;;7.38;87.00;101975.59;5046385;28;20271;-79
2021/10/09 08:14:52;;;;;;;27.27;18.00;;;;;;;7.45;87.59;101968.78;5046630;28;20635;-80
2021/10/09 08:17:19;;;;;;;22.90;17.60;;;;;;;7.46;87.77;101974.03;5047220;28;20248;-79
2021/10/09 08:19:45;;;;;;;21.93;16.80;;;;;;;7.47;88.26;101960.22;5045994;28;20202;-79
2021/10/09 08:22:12;;;;;;;17.53;15.77;;;;;;;7.52;87.16;101973.28;5046675;28;20205;-79
2021/10/09 08:24:44;;;;;;;18.87;17.03;;;;;;;7.54;87.08;101990.63;5046404;28;20213;-79
2021/10/09 08:27:34;;;;;;;23.00;17.67;;;;;;;7.59;87.20;101993.34;5047159;28;20233;-79
2021/10/09 08:35:33;;;;;;;25.50;17.53;;;;;;;7.62;88.31;101980.38;5046180;28;20224;-79
2021/10/09 08:40:45;;;;;;;20.87;17.17;;;;;;;7.78;87.14;101975.47;5045516;28;20240;-79
2021/10/09 08:43:12;;;;;;;20.67;17.60;;;;;;;7.79;86.83;101988.50;5046064;28;20208;-79
2021/10/09 08:45:39;;;;;;;25.80;18.20;;;;;;;7.80;87.40;101982.44;5046316;28;20210;-79
2021/10/09 08:48:06;;;;;;;22.60;17.33;;;;;;;7.83;86.62;102010.19;5046076;28;20643;-79
2021/10/09 08:50:32;;;;;;;19.87;18.07;;;;;;;7.91;87.10;102008.63;5046789;28;20232;-80
2021/10/09 08:53:01;;;;;;;19.00;17.13;;;;;;;7.95;87.29;101995.69;5047153;28;20213;-82
2021/10/09 08:55:29;;;;;;;19.93;17.67;;;;;;;8.03;86.53;101997.56;5046670;28;20204;-79
2021/10/09 08:58:02;;;;;;;21.00;18.70;;;;;;;8.08;87.13;102014.09;5044747;28;20282;-79
2021/10/09 09:00:47;;;;;;;24.40;19.07;;;;;;;8.14;87.61;101980.38;5044060;28;20199;-80
2021/10/09 09:03:16;;;;;;;22.27;18.37;;;;;;;8.21;87.92;101977.03;5044894;28;21053;-79
2021/10/09 09:06:04;;;;;;;22.67;18.57;;;;;;;8.29;86.38;102011.84;5049943;28;20229;-80
2021/10/09 09:26:05;;;;;;;27.40;19.17;;;;;;;8.69;85.86;102028.09;5046621;28;20222;-81
2021/10/09 09:34:14;;;;;;;25.93;19.07;;;;;;;8.92;84.80;102035.38;5045071;28;20309;-80
2021/10/09 09:39:22;;;;;;;21.17;18.93;;;;;;;9.03;85.53;102031.16;5043052;28;20213;-87
2021/10/09 09:41:50;;;;;;;20.60;18.23;;;;;;;9.08;85.36;102028.63;5045319;28;20374;-85
2021/10/09 09:44:21;;;;;;;20.80;18.57;;;;;;;9.12;85.08;102033.91;5044441;28;20197;-85
2021/10/09 09:47:03;;;;;;;21.87;17.83;;;;;;;9.23;84.60;102040.97;5044470;28;20757;-83
2021/10/09 09:49:29;;;;;;;21.90;18.70;;;;;;;9.29;84.78;102028.88;5045229;28;20248;-85
2021/10/09 09:51:57;;;;;;;22.67;19.23;;;;;;;9.36;84.27;102048.09;5045932;28;20206;-85
2021/10/09 09:54:26;;;;;;;22.87;20.27;;;;;;;9.42;85.84;102019.50;5045539;28;20268;-85
2021/10/09 09:56:56;;;;;;;20.03;17.87;;;;;;;9.51;84.71;102027.41;5045811;28;20271;-84
2021/10/09 09:59:28;;;;;;;20.70;18.63;;;;;;;9.60;83.82;102063.13;5045106;28;20207;-84
2021/10/09 10:01:55;;;;;;;25.77;18.67;;;;;;;9.65;82.92;102090.16;5045227;28;20210;-84
2021/10/09 10:04:24;;;;;;;24.73;19.43;;;;;;;9.69;82.50;102110.19;5045624;28;20209;-84
2021/10/09 10:06:50;;;;;;;20.63;18.53;;;;;;;9.73;81.70;102143.25;5045299;28;20239;-84
2021/10/09 10:09:17;;;;;;;22.83;19.47;;;;;;;9.78;81.17;102152.88;5043354;28;20263;-84
2021/10/09 10:11:44;;;;;;;20.60;18.67;;;;;;;9.87;82.94;102113.81;5044024;28;20234;-84
2021/10/09 10:14:11;;;;;;;28.40;19.63;;;;;;;9.94;82.44;102113.91;5044170;28;20261;-85
2021/10/09 10:16:38;;;;;;;20.33;18.20;;;;;;;10.03;81.85;102125.31;5043715;28;20485;-83
2021/10/09 10:19:05;;;;;;;23.00;18.47;;;;;;;10.06;81.22;102154.03;5043804;28;20260;-84
2021/10/09 10:21:50;;;;;;;20.07;18.07;;;;;;;10.13;80.71;102174.13;5044835;28;20217;-85
2021/10/09 10:24:49;;;;;;;20.73;18.57;;;;;;;10.17;80.68;102175.91;5045519;28;20884;-84
2021/10/09 10:27:32;;;;;;;20.90;17.57;;;;;;;10.23;80.26;102181.19;5042177;28;20287;-85
2021/10/09 10:30:22;;;;;;;21.47;18.10;;;;;;;10.28;80.04;102186.47;5045000;28;20592;-84
2021/10/09 10:33:22;;;;;;;23.30;17.47;;;;;;;10.32;79.46;102203.94;5045337;28;20267;-85
2021/10/09 10:35:48;;;;;;;26.90;18.87;;;;;;;10.38;78.55;102231.84;5044636;28;20244;-85
2021/10/09 10:38:43;;;;;;;19.33;17.27;;;;;;;10.39;77.40;102260.59;5045200;28;20219;-84
2021/10/09 10:41:12;;;;;;;19.70;17.80;;;;;;;10.40;77.71;102261.44;5045366;28;20199;-84
2021/10/09 10:43:41;;;;;;;20.10;17.97;;;;;;;10.43;77.70;102259.75;5045142;28;20265;-84
2021/10/09 10:46:40;;;;;;;18.80;16.90;;;;;;;10.47;77.87;102258.94;5044879;28;20203;-84
2021/10/09 10:49:12;;;;;;;17.73;16.10;;;;;;;10.52;76.67;102282.47;5044786;28;20672;-85
2021/10/09 10:51:42;;;;;;;21.27;17.23;;;;;;;10.54;76.23;102306.84;5044398;28;20221;-85
2021/10/09 10:57:14;;;;;;;19.80;14.80;;;;;;;10.68;73.59;102380.13;5044240;28;20257;-84
2021/10/09 10:59:45;;;;;;;23.37;15.63;;;;;;;10.72;74.23;102381.94;5044180;28;20262;-83
2021/10/09 11:02:13;;;;;;;15.23;13.63;;;;;;;10.76;72.15;102438.56;5044702;28;20205;-85
2021/10/09 11:04:42;;;;;;;21.63;13.77;;;;;;;10.80;71.42;102478.69;4348988;28;10000709;-84
2021/10/09 11:07:09;;;;;;;18.00;12.43;;;;;;;10.83;71.20;102477.00;5046026;28;20284;-81
2021/10/09 11:09:38;;;;;;;14.83;12.03;;;;;;;10.92;69.77;102541.53;5044664;28;20206;-82
2021/10/09 11:12:05;;;;;;;19.10;13.87;;;;;;;10.93;68.40;102580.75;5044969;28;20260;-83
2021/10/09 11:14:32;;;;;;;13.17;11.77;;;;;;;10.99;67.75;102600.88;5045269;28;20217;-82
2021/10/09 11:17:02;;;;;;;13.03;11.73;;;;;;;11.01;66.60;102640.09;5044908;28;20248;-83
2021/10/09 11:19:43;;;;;;;14.27;10.13;;;;;;;11.10;65.26;102685.56;5045856;28;20225;-83
2021/10/09 11:22:10;;;;;;;12.80;9.57;;;;;;;11.16;65.53;102683.88;5045617;28;20244;-83
2021/10/09 11:24:42;;;;;;;14.07;11.00;;;;;;;11.23;66.44;102657.84;5045164;28;20616;-81
2021/10/09 11:27:09;;;;;;;13.97;11.97;;;;;;;11.33;66.56;102635.31;5045459;28;20226;-84
2021/10/09 11:29:35;;;;;;;14.37;11.70;;;;;;;11.37;67.22;102618.81;5045862;28;20458;-81
2021/10/09 11:32:04;;;;;;;13.20;11.40;;;;;;;11.47;66.32;102651.19;5045270;28;20241;-85
2021/10/09 11:34:31;;;;;;;13.03;11.67;;;;;;;11.59;64.42;102680.13;5045881;28;20263;-83
2021/10/09 11:36:58;;;;;;;11.27;10.17;;;;;;;11.78;64.75;102710.03;5045237;28;20282;-83
2021/10/09 11:39:26;;;;;;;10.90;9.30;;;;;;;12.11;59.27;102848.34;5045479;28;20659;-82
2021/10/09 11:42:10;;;;;;;12.97;9.53;;;;;;;12.62;59.58;102909.22;5045261;28;20504;-88
2021/10/09 11:44:39;;;;;;;11.17;9.33;;;;;;;13.17;58.10;102971.03;5045822;28;20207;-83
2021/10/09 11:55:34;;;;;;;10.83;8.90;;;;;;;19.01;39.46;103681.78;5048849;28;20706;-85
2021/10/09 11:58:05;;;;;;;8.47;7.67;;;;;;;20.61;37.41;103780.03;5048778;28;20249;-84
2021/10/09 12:00:41;;;;;;;9.57;8.33;;;;;;;21.63;33.33;103885.41;5048723;28;20200;-85
2021/10/09 12:03:31;;;;;;;9.00;8.27;;;;;;;22.44;32.35;103899.56;5048609;28;20636;-85
2021/10/09 12:05:59;;;;;;;8.93;7.80;;;;;;;23.39;31.01;103935.41;5048659;28;20954;-86
2021/10/09 12:08:26;;;;;;;12.03;8.70;;;;;;;24.04;30.13;103915.53;5048179;28;20235;-83
2021/10/09 12:11:10;;;;;;;9.93;8.10;;;;;;;24.54;28.07;103953.69;5048705;28;20477;-85
2021/10/09 12:13:47;;;;;;;9.57;7.73;;;;;;;24.99;29.16;103907.22;5049163;28;20272;-86
2021/10/09 12:16:13;;;;;;;9.30;8.50;;;;;;;25.56;27.82;103863.00;5047588;28;20205;-85
2021/10/09 12:18:51;;;;;;;9.33;8.30;;;;;;;25.59;25.71;103951.22;5048538;28;20230;-84
2021/10/09 12:21:17;;;;;;;9.20;8.30;;;;;;;25.68;24.81;103980.38;5048583;28;20626;-85
2021/10/09 12:23:44;;;;;;;8.57;7.60;;;;;;;25.84;25.85;103958.56;5048152;28;20642;-85
2021/10/09 12:26:16;;;;;;;8.60;7.90;;;;;;;25.43;24.68;103945.38;5046915;28;20210;-84
2021/10/09 12:29:12;;;;;;;9.07;7.57;;;;;;;24.86;24.73;103941.41;5047109;28;20282;-84
2021/10/09 12:31:43;;;;;;;8.77;7.87;;;;;;;24.16;25.57;103877.94;5047088;28;20204;-83
2021/10/09 12:34:33;;;;;;;8.20;7.40;;;;;;;23.84;26.76;103808.34;5046849;28;20209;-84
2021/10/09 12:37:18;;;;;;;8.47;7.73;;;;;;;23.58;27.89;103737.72;5048104;28;20233;-85
2021/10/09 12:39:47;;;;;;;10.73;7.47;;;;;;;23.52;26.78;103746.72;5046821;28;20208;-84
2021/10/09 12:42:16;;;;;;;8.17;7.37;;;;;;;23.30;27.23;103745.41;5046792;28;20224;-83
2021/10/09 12:44:44;;;;;;;9.60;7.40;;;;;;;22.83;27.73;103710.72;5047417;28;20408;-83
2021/10/09 12:47:11;;;;;;;8.60;7.73;;;;;;;22.57;28.26;103672.13;5046765;28;20966;-84
2021/10/09 12:49:37;;;;;;;11.87;7.90;;;;;;;22.50;29.88;103597.75;5047049;28;20633;-84
2021/10/09 12:52:04;;;;;;;8.63;7.63;;;;;;;22.38;31.21;103521.66;5046955;28;20208;-84
2021/10/09 12:54:32;;;;;;;9.10;7.73;;;;;;;22.24;30.11;103508.63;5047591;28;20212;-83
2021/10/09 12:56:58;;;;;;;8.33;7.37;;;;;;;22.04;31.14;103508.94;5046831;28;20281;-83
2021/10/09 12:59:25;;;;;;;8.37;7.53;;;;;;;21.90;31.87;103463.97;5047112;28;20738;-84
2021/10/09 13:01:52;;;;;;;7.83;7.20;;;;;;;21.74;30.95;103458.06;5047267;28;20253;-83
2021/10/09 13:04:19;;;;;;;8.63;7.70;;;;;;;21.43;31.68;103460.34;5046723;28;20750;-82
2021/10/09 13:06:45;;;;;;;9.30;7.73;;;;;;;21.29;32.58;103433.97;5047619;28;20209;-85
2021/10/09 13:09:14;;;;;;;11.67;7.40;;;;;;;21.05;32.82;103399.81;5046458;28;20212;-83